Time;durP1;ratioP1;P1;durP2;ratioP2;P2;SDS_P1;SDS_P2;PMS_P1;PMS_P2;Temp;Humidity;BMP_temperature;BMP_pressure;BME280_temperature;BME280_humidity;BME280_pressure;Samples;Min_cycle;Max_cycle;Signal;HPM_P1;HPM_P2
2021/09/27 00:00:42;;;;;;;5.30;1.40;;;;;;;10.34;67.45;99558.61;27224;1216;3048924;-71
2021/09/27 00:03:11;;;;;;;3.80;1.50;;;;;;;10.47;66.50;99563.83;27253;1217;3052498;-67
2021/09/27 00:05:40;;;;;;;5.60;1.90;;;;;;;10.36;66.72;99566.71;27247;1217;3027170;-68
2021/09/27 00:08:09;;;;;;;4.00;1.50;;;;;;;10.24;67.03;99560.74;27227;1217;3051652;-69
2021/09/27 00:10:43;;;;;;;4.00;2.10;;;;;;;10.06;67.67;99565.66;27227;1217;3026425;-69
2021/09/27 00:13:12;;;;;;;4.20;1.90;;;;;;;9.92;68.13;99562.73;27290;1217;3056279;-68
2021/09/27 00:15:43;;;;;;;3.50;2.00;;;;;;;9.72;68.84;99560.34;27233;1217;3027887;-69
2021/09/27 00:18:13;;;;;;;4.20;1.80;;;;;;;9.73;68.82;99557.52;27280;1217;3051784;-67
2021/09/27 00:20:44;;;;;;;3.10;1.40;;;;;;;9.68;69.33;99559.20;27215;1217;3026324;-70
2021/09/27 00:23:13;;;;;;;3.00;1.50;;;;;;;10.20;68.11;99567.15;27243;1217;3052956;-68
2021/09/27 00:25:42;;;;;;;4.40;1.60;;;;;;;10.60;66.74;99562.90;27224;1217;3026015;-69
2021/09/27 00:28:12;;;;;;;7.20;2.40;;;;;;;10.55;66.41;99561.10;27209;1218;3049574;-71
2021/09/27 00:30:41;;;;;;;6.40;3.00;;;;;;;10.43;66.93;99560.02;27235;1216;3026442;-70
2021/09/27 00:33:10;;;;;;;6.90;3.00;;;;;;;10.20;67.49;99559.93;27256;1209;3026509;-65
2021/09/27 00:35:39;;;;;;;12.20;4.70;;;;;;;10.03;68.24;99564.61;27238;1217;3048569;-68
2021/09/27 00:38:08;;;;;;;7.70;3.60;;;;;;;9.80;69.01;99566.92;27236;1217;3026564;-69
2021/09/27 00:40:41;;;;;;;15.30;4.80;;;;;;;9.77;68.86;99565.66;27255;1217;3070257;-68
2021/09/27 00:43:10;;;;;;;10.40;4.00;;;;;;;9.72;69.45;99563.31;27325;1212;3025963;-67
2021/09/27 00:45:42;;;;;;;11.80;4.30;;;;;;;10.17;68.51;99558.73;27299;1212;3026265;-67
2021/09/27 00:48:12;;;;;;;7.80;3.50;;;;;;;10.40;67.35;99556.69;27253;1212;3067744;-66
2021/09/27 00:50:44;;;;;;;10.80;3.10;;;;;;;10.22;67.83;99555.47;27283;1206;3025789;-69
2021/09/27 00:53:29;;;;;;;8.80;3.50;;;;;;;10.12;67.95;99561.11;27293;1212;3050543;-68
2021/09/27 00:55:58;;;;;;;8.50;2.80;;;;;;;9.96;68.67;99562.38;27274;1212;3067784;-65
2021/09/27 00:58:27;;;;;;;6.20;2.80;;;;;;;9.73;69.42;99564.52;27279;1214;3026659;-67
2021/09/27 01:00:56;;;;;;;6.50;3.10;;;;;;;9.66;69.76;99566.48;27272;1213;3051074;-70
2021/09/27 01:03:27;;;;;;;10.20;3.10;;;;;;;9.64;70.16;99569.58;27278;1205;3026330;-68
2021/09/27 01:06:09;;;;;;;8.70;3.00;;;;;;;10.13;69.13;99572.58;27296;1212;3054847;-71
2021/09/27 01:09:03;;;;;;;6.20;3.00;;;;;;;10.41;67.89;99572.59;27271;1212;3052040;-69
2021/09/27 01:12:16;;;;;;;9.00;4.50;;;;;;;10.33;67.93;99569.04;27206;1216;3068768;-67
2021/09/27 01:15:22;;;;;;;12.50;5.30;;;;;;;10.10;68.53;99575.21;27225;1211;3051980;-68
2021/09/27 01:18:09;;;;;;;16.40;5.30;;;;;;;9.93;69.24;99575.10;27227;1219;3054673;-70
2021/09/27 01:21:03;;;;;;;18.90;5.50;;;;;;;9.69;70.01;99574.66;27174;1219;3055006;-64
2021/09/27 01:23:57;;;;;;;22.40;8.40;;;;;;;9.50;71.13;99580.30;27246;1219;3054854;-70
2021/09/27 01:26:34;;;;;;;14.50;6.10;;;;;;;9.50;71.40;99588.66;27212;1218;3049569;-66
2021/09/27 01:29:08;;;;;;;26.90;9.40;;;;;;;10.12;69.50;99584.88;27232;1219;3057376;-66
2021/09/27 01:32:45;;;;;;;23.90;9.20;;;;;;;10.24;68.80;99586.88;27239;1219;3050662;-69
2021/09/27 01:35:33;;;;;;;22.70;9.80;;;;;;;10.28;68.40;99584.89;26957;1225;3069001;-68
2021/09/27 01:38:46;;;;;;;26.90;9.80;;;;;;;10.04;68.94;99588.35;26990;1225;3047899;-70
2021/09/27 01:41:27;;;;;;;24.70;9.90;;;;;;;9.77;69.89;99589.12;26967;1228;3052285;-69
2021/09/27 01:44:02;;;;;;;23.70;9.30;;;;;;;9.67;70.09;99598.94;26936;1229;3052394;-68
2021/09/27 01:46:41;;;;;;;27.70;9.90;;;;;;;9.52;71.09;99598.71;27048;1226;3055898;-68
2021/09/27 01:49:25;;;;;;;18.50;7.30;;;;;;;10.19;69.52;99598.19;27124;1225;3050019;-66
2021/09/27 01:52:08;;;;;;;17.00;6.60;;;;;;;10.30;68.44;99598.09;27166;1223;3052922;-66
2021/09/27 01:55:15;;;;;;;15.80;6.50;;;;;;;10.18;68.68;99601.91;27088;1223;3053288;-66
2021/09/27 01:58:18;;;;;;;14.40;5.40;;;;;;;10.01;69.22;99605.61;27191;1223;3068917;-65
2021/09/27 02:00:56;;;;;;;13.90;5.40;;;;;;;9.71;70.18;99609.54;27112;1225;3050988;-66
2021/09/27 02:03:37;;;;;;;10.50;4.60;;;;;;;9.46;71.12;99606.72;27072;1223;3052376;-69
2021/09/27 02:06:13;;;;;;;11.50;4.70;;;;;;;9.36;71.37;99605.67;27136;1223;3052722;-69
2021/09/27 02:09:03;;;;;;;9.20;3.20;;;;;;;9.41;71.58;99600.89;27075;1223;3055720;-67
2021/09/27 02:11:39;;;;;;;10.90;4.20;;;;;;;10.02;70.15;99605.02;27215;1218;3049358;-68
2021/09/27 02:14:30;;;;;;;11.50;5.00;;;;;;;10.39;68.48;99604.05;27257;1219;3053748;-68
2021/09/27 02:17:09;;;;;;;10.50;3.90;;;;;;;10.13;68.90;99610.89;27239;1218;3051202;-68
2021/09/27 02:20:47;;;;;;;17.60;6.60;;;;;;;9.81;70.29;99617.42;34183;1216;3025701;-70
2021/09/27 02:23:27;;;;;;;17.40;7.30;;;;;;;9.84;69.97;99618.82;27192;1218;3026322;-67
2021/09/27 02:25:56;;;;;;;14.00;6.70;;;;;;;9.93;69.72;99614.67;27220;1219;3054273;-66
2021/09/27 02:28:25;;;;;;;16.50;5.70;;;;;;;9.44;71.28;99618.70;27259;1219;3025748;-72
2021/09/27 02:31:10;;;;;;;15.60;5.00;;;;;;;9.36;72.04;99621.09;27271;1216;3026205;-69
2021/09/27 02:33:57;;;;;;;15.70;6.10;;;;;;;9.86;70.68;99618.73;27270;1215;3054936;-68
2021/09/27 02:36:35;;;;;;;17.20;6.50;;;;;;;10.06;69.64;99616.73;27272;1215;3054852;-68
2021/09/27 02:39:14;;;;;;;16.90;7.00;;;;;;;9.87;70.04;99625.83;27222;1215;3052089;-68
2021/09/27 02:41:45;;;;;;;21.50;6.50;;;;;;;9.76;70.38;99622.96;27290;1209;3056221;-66
2021/09/27 02:44:15;;;;;;;15.20;6.10;;;;;;;9.61;70.92;99623.36;27250;1215;3026232;-68
2021/09/27 02:46:53;;;;;;;19.40;8.40;;;;;;;9.47;71.36;99633.39;27262;1215;3028817;-69
2021/09/27 02:49:26;;;;;;;15.20;6.00;;;;;;;9.20;72.66;99629.07;27250;1215;3051571;-65
2021/09/27 02:51:58;;;;;;;12.30;5.00;;;;;;;9.09;73.30;99632.25;27298;1215;3050525;-71
2021/09/27 02:54:36;;;;;;;13.90;4.40;;;;;;;9.68;71.58;99627.23;27290;1216;3025915;-69
2021/09/27 02:57:15;;;;;;;14.90;5.60;;;;;;;10.01;70.27;99629.83;27242;1218;3048686;-69
2021/09/27 02:59:50;;;;;;;11.30;4.30;;;;;;;9.85;70.41;99627.88;27283;1215;3051561;-69
2021/09/27 03:02:29;;;;;;;10.90;3.90;;;;;;;9.56;71.32;99634.48;27261;1215;3052585;-66
2021/09/27 03:05:21;;;;;;;12.30;4.20;;;;;;;9.34;72.29;99628.31;27267;1219;3056764;-67
2021/09/27 03:08:08;;;;;;;5.40;3.30;;;;;;;9.16;72.89;99630.65;27254;1216;3050473;-72
2021/09/27 03:11:20;;;;;;;6.70;2.10;;;;;;;9.00;73.86;99639.17;27239;1216;3053864;-69
2021/09/27 03:13:53;;;;;;;13.10;2.50;;;;;;;9.63;71.95;99635.52;27242;1219;3050186;-71
2021/09/27 03:16:34;;;;;;;4.60;2.60;;;;;;;9.66;71.63;99638.55;27191;1220;3026080;-65
2021/09/27 03:19:10;;;;;;;6.40;2.70;;;;;;;9.53;71.82;99642.91;27209;1221;3049779;-69
2021/09/27 03:21:56;;;;;;;7.00;3.10;;;;;;;9.27;72.69;99641.63;27209;1221;3051943;-69
2021/09/27 03:24:42;;;;;;;3.30;2.30;;;;;;;9.04;73.58;99649.46;27234;1219;3053548;-68
2021/09/27 03:27:20;;;;;;;5.90;2.90;;;;;;;8.92;74.13;99643.97;27232;1219;3056172;-68
2021/09/27 03:30:04;;;;;;;4.80;1.50;;;;;;;8.81;74.84;99641.73;27192;1221;3049078;-68
2021/09/27 03:33:04;;;;;;;3.70;2.00;;;;;;;9.48;72.93;99638.80;27190;1219;3052562;-70
2021/09/27 03:36:27;;;;;;;4.40;2.20;;;;;;;9.60;72.06;99640.05;27189;1219;3050539;-69
2021/09/27 03:39:37;;;;;;;5.60;2.30;;;;;;;9.30;72.93;99643.39;27045;1224;3067466;-69
2021/09/27 03:42:12;;;;;;;7.40;2.60;;;;;;;8.94;74.14;99646.48;27029;1225;3048926;-71
2021/09/27 03:45:04;;;;;;;4.10;2.50;;;;;;;8.72;75.10;99654.39;27056;1225;3051825;-70
2021/09/27 03:47:38;;;;;;;7.30;1.70;;;;;;;8.62;75.84;99652.07;26982;1227;3056608;-65
2021/09/27 03:50:16;;;;;;;4.80;2.60;;;;;;;9.30;74.06;99642.51;27029;1226;3055956;-70
2021/09/27 03:53:07;;;;;;;6.40;2.40;;;;;;;9.51;72.62;99648.21;27088;1222;3049086;-71
2021/09/27 03:55:48;;;;;;;5.10;2.90;;;;;;;9.38;72.95;99656.08;27348;1223;3051307;-69
2021/09/27 03:58:23;;;;;;;7.10;3.00;;;;;;;9.18;73.64;99651.20;27329;1222;3052497;-69
2021/09/27 04:00:56;;;;;;;;;;;;;;;8.94;74.54;99659.73;27318;1222;3069016;-69
2021/09/27 04:03:38;;;;;;;4.80;3.00;;;;;;;8.82;74.82;99666.65;27187;1222;3025978;-68
2021/09/27 04:06:31;;;;;;;5.90;1.90;;;;;;;8.77;75.39;99673.69;27166;1222;3055680;-71
2021/09/27 04:09:31;;;;;;;6.30;2.00;;;;;;;9.22;74.25;99669.01;27121;1224;3052874;-68
2021/09/27 04:12:16;;;;;;;3.70;2.40;;;;;;;9.44;73.27;99671.71;26965;1227;3055309;-70
2021/09/27 04:15:06;;;;;;;5.70;3.40;;;;;;;9.21;74.09;99675.84;27020;1225;3049340;-72
2021/09/27 04:18:11;;;;;;;5.90;3.50;;;;;;;9.10;74.16;99679.89;27127;1222;3052419;-66
2021/09/27 04:20:52;;;;;;;7.90;3.20;;;;;;;8.82;75.51;99681.16;27139;1223;3049298;-68
2021/09/27 04:23:40;;;;;;;6.10;2.20;;;;;;;8.77;75.82;99679.45;27046;1225;3068793;-71
2021/09/27 04:26:47;;;;;;;5.90;2.70;;;;;;;9.35;74.10;99670.05;27052;1225;3049031;-67
2021/09/27 04:29:16;;;;;;;8.90;3.60;;;;;;;9.62;72.95;99675.95;27130;1225;3052284;-64
2021/09/27 04:32:08;;;;;;;8.90;3.30;;;;;;;9.44;73.35;99675.20;27095;1225;3026107;-69
2021/09/27 04:35:14;;;;;;;6.20;2.80;;;;;;;9.29;73.66;99679.44;26938;1232;3049238;-71
2021/09/27 04:37:44;;;;;;;7.00;3.20;;;;;;;8.94;75.11;99681.21;26966;1228;3051876;-67
2021/09/27 04:40:14;;;;;;;5.20;2.40;;;;;;;8.80;75.75;99685.41;26973;1227;3027988;-72
2021/09/27 04:43:19;;;;;;;3.70;2.40;;;;;;;9.32;74.41;99680.86;27018;1226;3027021;-67
2021/09/27 04:45:54;;;;;;;;;;;;;;;9.75;72.64;99673.00;26984;1227;3048861;-72
2021/09/27 04:48:31;;;;;;;5.60;3.00;;;;;;;9.67;72.79;99669.27;27009;1227;3052819;-68
2021/09/27 04:51:06;;;;;;;4.00;2.70;;;;;;;9.38;73.64;99674.96;27127;1224;3049892;-74
2021/09/27 04:54:00;;;;;;;6.80;2.70;;;;;;;9.12;74.65;99683.83;27131;1224;3070421;-68
2021/09/27 04:56:53;;;;;;;2.80;2.30;;;;;;;9.12;74.57;99684.69;27171;1223;3048000;-67
2021/09/27 04:59:49;;;;;;;4.00;1.70;;;;;;;9.24;74.59;99678.48;27213;1221;3051862;-66
2021/09/27 05:02:32;;;;;;;2.70;1.70;;;;;;;9.83;72.48;99678.91;27236;1219;3052157;-67
2021/09/27 05:05:32;;;;;;;3.20;2.20;;;;;;;10.08;71.35;99677.34;27230;1221;3056519;-66
2021/09/27 05:08:36;;;;;;;7.70;2.20;;;;;;;9.76;72.11;99677.52;27238;1219;3049591;-72
2021/09/27 05:11:29;;;;;;;5.20;2.30;;;;;;;9.58;72.90;99666.23;27217;1219;3053059;-70
2021/09/27 05:14:07;;;;;;;3.70;2.00;;;;;;;9.56;73.02;99671.39;27263;1219;3048853;-67
2021/09/27 05:17:13;;;;;;;6.10;3.10;;;;;;;9.33;73.66;99673.30;27266;1215;3070579;-68
2021/09/27 05:20:19;;;;;;;1.80;1.50;;;;;;;9.34;74.11;99678.13;27266;1215;3052998;-67
2021/09/27 05:23:08;;;;;;;3.50;2.20;;;;;;;10.12;71.49;99668.07;27249;1215;3054790;-68
2021/09/27 05:25:44;;;;;;;4.60;2.30;;;;;;;10.35;70.59;99673.94;27239;1216;3055055;-68
2021/09/27 05:28:16;;;;;;;5.20;2.60;;;;;;;10.07;71.34;99679.67;27230;1215;3059026;-70
2021/09/27 05:31:16;;;;;;;2.90;1.80;;;;;;;9.78;72.18;99681.61;27250;1215;3027711;-67
2021/09/27 05:33:45;;;;;;;3.60;2.60;;;;;;;9.80;72.19;99686.58;27282;1215;3055351;-69
2021/09/27 05:36:37;;;;;;;7.00;2.70;;;;;;;9.74;72.47;99686.52;27207;1215;3025844;-70
2021/09/27 05:39:10;;;;;;;6.60;1.80;;;;;;;9.78;72.84;99680.76;27221;1215;3052048;-67
2021/09/27 05:42:02;;;;;;;6.20;2.10;;;;;;;10.49;70.79;99678.42;27240;1216;3025960;-69
2021/09/27 05:45:09;;;;;;;8.40;2.20;;;;;;;10.95;68.88;99679.46;27244;1218;3050462;-69
2021/09/27 05:48:07;;;;;;;4.40;2.40;;;;;;;10.75;68.90;99679.95;27226;1216;3068616;-67
2021/09/27 05:51:06;;;;;;;2.80;2.00;;;;;;;10.44;69.82;99682.75;27240;1215;3048133;-69
2021/09/27 05:53:46;;;;;;;5.20;2.90;;;;;;;10.12;71.09;99683.81;27302;1215;3054808;-69
2021/09/27 05:56:35;;;;;;;4.10;2.30;;;;;;;10.20;70.89;99680.54;27243;1216;3054794;-66
2021/09/27 05:59:35;;;;;;;6.10;2.80;;;;;;;10.19;70.89;99685.70;27265;1216;3055773;-68
2021/09/27 06:02:26;;;;;;;3.90;1.70;;;;;;;10.17;71.13;99690.33;27241;1216;3050030;-71
2021/09/27 06:05:02;;;;;;;5.50;2.30;;;;;;;10.77;69.43;99685.75;27258;1216;3053007;-70
2021/09/27 06:07:37;;;;;;;3.40;2.20;;;;;;;11.07;68.07;99685.24;27304;1215;3052643;-68
2021/09/27 06:10:15;;;;;;;4.40;2.70;;;;;;;11.10;67.72;99688.56;27193;1215;3070585;-71
2021/09/27 06:13:21;;;;;;;4.30;2.00;;;;;;;10.99;68.16;99687.64;27212;1215;3049204;-71
2021/09/27 06:15:51;;;;;;;4.90;2.80;;;;;;;10.77;69.11;99694.36;27200;1221;3051776;-73
2021/09/27 06:19:22;;;;;;;3.40;2.30;;;;;;;10.84;68.52;99693.63;27161;1220;3051368;-70
2021/09/27 06:22:24;;;;;;;6.20;2.20;;;;;;;10.76;68.88;99688.09;27088;1222;3056421;-71
2021/09/27 06:25:27;;;;;;;4.10;2.20;;;;;;;10.89;68.23;99685.40;27097;1222;3052657;-71
2021/09/27 06:28:23;;;;;;;3.80;1.70;;;;;;;11.07;67.75;99694.02;27084;1225;3051722;-68
2021/09/27 06:31:17;;;;;;;2.20;1.30;;;;;;;11.76;65.32;99687.95;27154;1222;3050720;-70
2021/09/27 06:33:49;;;;;;;2.80;1.60;;;;;;;12.33;63.81;99687.90;27125;1222;3071603;-71
2021/09/27 06:36:24;;;;;;;3.10;1.50;;;;;;;12.25;62.64;99682.60;27154;1222;3027504;-69
2021/09/27 06:38:57;;;;;;;2.00;1.20;;;;;;;12.09;62.45;99687.48;27158;1222;3052004;-70
2021/09/27 06:41:27;;;;;;;4.80;1.20;;;;;;;11.83;62.06;99689.11;27149;1224;3051374;-73
2021/09/27 06:43:56;;;;;;;4.90;1.40;;;;;;;11.70;63.18;99690.23;27166;1222;3029186;-66
2021/09/27 06:46:25;;;;;;;2.50;1.50;;;;;;;11.65;63.31;99696.69;27065;1224;3026173;-68
2021/09/27 06:48:54;;;;;;;2.30;1.20;;;;;;;11.43;63.82;99693.09;27118;1222;3051913;-72
2021/09/27 06:51:23;;;;;;;3.60;1.60;;;;;;;11.26;64.56;99699.39;27162;1219;3026565;-69
2021/09/27 06:53:52;;;;;;;7.40;2.10;;;;;;;11.27;64.59;99700.04;27258;1219;3053960;-68
2021/09/27 06:56:24;;;;;;;5.50;2.00;;;;;;;11.38;64.67;99690.04;27226;1219;3025950;-66
2021/09/27 06:58:53;;;;;;;5.50;2.00;;;;;;;11.29;64.67;99703.40;27259;1209;3026338;-70
2021/09/27 07:01:23;;;;;;;3.30;1.80;;;;;;;11.32;64.34;99697.08;27279;1216;3050726;-70
2021/09/27 07:03:52;;;;;;;2.70;1.40;;;;;;;11.42;64.29;99701.44;27274;1216;3025833;-70
2021/09/27 07:06:21;;;;;;;4.00;1.30;;;;;;;11.25;64.64;99709.45;27301;1215;3026641;-67
2021/09/27 07:08:50;;;;;;;2.10;1.60;;;;;;;11.23;64.70;99710.95;27268;1215;3051323;-69
2021/09/27 07:11:18;;;;;;;3.00;1.60;;;;;;;11.20;64.83;99714.63;27337;1215;3026431;-70
2021/09/27 07:13:47;;;;;;;3.90;1.60;;;;;;;11.25;64.74;99712.44;27295;1216;3048554;-68
2021/09/27 07:16:16;;;;;;;2.70;1.70;;;;;;;11.23;64.62;99712.40;27409;1216;3029137;-67
2021/09/27 07:18:45;;;;;;;3.60;1.50;;;;;;;11.35;64.19;99710.92;27314;1215;3067611;-69
2021/09/27 07:21:14;;;;;;;5.30;1.60;;;;;;;11.57;63.93;99705.25;27295;1216;3028163;-68
2021/09/27 07:23:45;;;;;;;2.60;1.70;;;;;;;11.92;63.19;99707.00;27201;1216;3049634;-67
2021/09/27 07:26:16;;;;;;;3.60;1.30;;;;;;;12.24;62.26;99708.83;27208;1215;3029047;-65
2021/09/27 07:28:52;;;;;;;2.80;1.60;;;;;;;12.52;61.51;99706.52;27261;1215;3026093;-69
2021/09/27 07:31:52;;;;;;;6.40;2.30;;;;;;;12.60;61.15;99708.85;34463;1215;3026736;-69
2021/09/27 07:34:23;;;;;;;5.30;2.40;;;;;;;12.74;59.88;99707.23;27252;1215;3025901;-68
2021/09/27 07:36:55;;;;;;;5.50;1.80;;;;;;;12.95;59.06;99709.89;27272;1215;3028880;-67
2021/09/27 07:39:26;;;;;;;4.40;1.90;;;;;;;12.56;60.27;99711.58;27290;1215;3028660;-65
2021/09/27 07:41:57;;;;;;;4.50;1.90;;;;;;;12.36;61.12;99718.41;27255;1215;3028505;-67
2021/09/27 07:44:55;;;;;;;4.50;1.60;;;;;;;12.29;61.11;99710.31;34388;1209;3025768;-69
2021/09/27 07:47:24;;;;;;;6.40;2.50;;;;;;;12.47;60.91;99715.66;27216;1218;3025656;-67
2021/09/27 07:49:53;;;;;;;2.20;1.60;;;;;;;12.89;59.57;99712.05;27242;1218;3026151;-67
2021/09/27 07:52:22;;;;;;;4.60;1.90;;;;;;;13.07;59.11;99709.57;27218;1218;3047621;-67
2021/09/27 07:54:51;;;;;;;4.30;1.70;;;;;;;13.23;58.74;99716.84;27232;1218;3028456;-68
2021/09/27 07:57:20;;;;;;;3.10;1.70;;;;;;;13.15;59.05;99715.56;27272;1218;3067793;-70
2021/09/27 07:59:53;;;;;;;6.30;1.80;;;;;;;13.12;59.21;99718.40;27256;1218;3026084;-67
2021/09/27 08:02:22;;;;;;;7.60;1.80;;;;;;;13.24;59.07;99716.54;27263;1218;3027383;-67
2021/09/27 08:04:51;;;;;;;7.00;2.10;;;;;;;13.02;59.19;99718.59;27210;1218;3025855;-68
2021/09/27 08:07:21;;;;;;;7.70;2.00;;;;;;;12.98;59.38;99718.46;27219;1218;3051052;-68
2021/09/27 08:09:50;;;;;;;4.80;2.50;;;;;;;13.01;59.30;99715.45;27221;1217;3026261;-69
2021/09/27 08:12:20;;;;;;;6.00;1.80;;;;;;;13.10;59.37;99722.08;27249;1218;3026339;-69
2021/09/27 08:14:51;;;;;;;4.10;1.40;;;;;;;12.80;59.09;99716.64;27274;1218;3025766;-67
2021/09/27 08:17:20;;;;;;;2.00;1.40;;;;;;;12.68;59.36;99719.20;27249;1218;3027779;-68
2021/09/27 08:19:49;;;;;;;3.70;1.90;;;;;;;12.65;60.02;99724.00;27244;1218;3051096;-69
2021/09/27 08:22:17;;;;;;;3.30;1.60;;;;;;;12.47;60.41;99729.16;27265;1217;3027401;-67
2021/09/27 08:24:47;;;;;;;4.90;1.70;;;;;;;12.51;59.67;99723.95;27282;1216;3051020;-65
2021/09/27 08:27:17;;;;;;;3.30;1.80;;;;;;;12.64;58.92;99721.20;27268;1216;3026030;-70
2021/09/27 08:29:46;;;;;;;2.60;1.70;;;;;;;12.95;58.83;99719.70;27225;1216;3026301;-66
2021/09/27 08:32:16;;;;;;;4.50;1.20;;;;;;;13.23;57.57;99713.98;27281;1216;3026280;-71
2021/09/27 08:34:47;;;;;;;3.20;1.30;;;;;;;13.30;56.62;99712.67;27226;1216;3054346;-67
2021/09/27 08:37:18;;;;;;;3.80;1.50;;;;;;;13.19;56.05;99713.91;27218;1216;3028332;-69
2021/09/27 08:39:48;;;;;;;2.70;1.10;;;;;;;12.97;56.16;99716.77;27239;1218;3025981;-66
2021/09/27 08:42:38;;;;;;;3.30;1.20;;;;;;;12.94;57.07;99710.31;27262;1216;3026318;-65
2021/09/27 08:45:15;;;;;;;3.80;1.10;;;;;;;13.10;56.32;99706.92;27276;1216;3050241;-68
2021/09/27 08:48:04;;;;;;;2.70;1.00;;;;;;;13.51;55.56;99697.83;27321;1216;3071188;-67
2021/09/27 08:50:43;;;;;;;1.00;0.70;;;;;;;13.91;53.45;99689.45;27263;1216;3049643;-64
2021/09/27 08:53:25;;;;;;;2.60;0.90;;;;;;;14.20;52.53;99691.11;27264;1217;3051912;-66
2021/09/27 08:56:12;;;;;;;4.00;1.00;;;;;;;13.87;52.61;99702.37;27315;1216;3055164;-68
2021/09/27 08:58:52;;;;;;;1.60;0.80;;;;;;;13.71;53.56;99700.86;27202;1218;3056609;-69
2021/09/27 09:01:29;;;;;;;1.60;0.90;;;;;;;13.62;53.80;99696.02;27224;1217;3052191;-68
2021/09/27 09:04:04;;;;;;;2.60;0.80;;;;;;;13.69;53.10;99692.42;27213;1216;3053052;-66
2021/09/27 09:06:45;;;;;;;3.70;0.90;;;;;;;13.78;53.00;99696.20;27241;1218;3050262;-68
2021/09/27 09:09:38;;;;;;;1.70;0.90;;;;;;;14.01;51.86;99692.79;27203;1216;3071083;-68
2021/09/27 09:12:32;;;;;;;3.10;0.70;;;;;;;14.04;51.33;99692.77;27233;1218;3049106;-67
2021/09/27 09:15:26;;;;;;;1.60;0.80;;;;;;;14.01;50.90;99689.64;27303;1218;3052287;-67
2021/09/27 09:18:18;;;;;;;4.80;0.70;;;;;;;14.11;50.75;99694.77;27229;1219;3054903;-68
2021/09/27 09:21:19;;;;;;;2.70;0.60;;;;;;;14.29;50.47;99702.27;27232;1218;3056063;-65
2021/09/27 09:23:54;;;;;;;1.70;0.70;;;;;;;14.40;49.75;99700.27;27238;1216;3049534;-68
2021/09/27 09:26:38;;;;;;;2.90;0.70;;;;;;;14.54;50.02;99703.13;27261;1218;3052740;-68
2021/09/27 09:29:07;;;;;;;1.90;0.70;;;;;;;14.70;50.48;99705.15;27243;1217;3053154;-67
2021/09/27 09:31:49;;;;;;;7.20;0.60;;;;;;;14.81;48.99;99702.70;27239;1216;3027483;-67
2021/09/27 09:34:37;;;;;;;4.20;0.40;;;;;;;14.76;47.66;99706.29;27257;1218;3049147;-67
2021/09/27 09:37:20;;;;;;;0.60;0.50;;;;;;;14.78;47.52;99706.27;27276;1216;3028356;-69
2021/09/27 09:39:57;;;;;;;0.50;0.40;;;;;;;14.84;47.81;99708.29;27271;1219;3071127;-65
2021/09/27 09:42:34;;;;;;;3.80;0.50;;;;;;;15.13;46.51;99708.76;27216;1218;3048721;-67
2021/09/27 09:45:17;;;;;;;2.70;0.50;;;;;;;15.49;45.73;99700.77;27260;1217;3054938;-69
2021/09/27 09:47:47;;;;;;;1.30;0.50;;;;;;;15.63;45.50;99702.48;27254;1217;3026263;-65
2021/09/27 09:50:35;;;;;;;5.10;0.70;;;;;;;15.69;45.61;99696.41;27256;1218;3056266;-67
2021/09/27 09:53:36;;;;;;;2.10;0.70;;;;;;;15.45;46.22;99703.71;27243;1217;3026376;-64
2021/09/27 09:56:07;;;;;;;0.90;0.70;;;;;;;15.50;46.32;99703.37;27223;1217;3052437;-66
2021/09/27 09:58:38;;;;;;;2.50;0.70;;;;;;;15.56;46.52;99702.02;27355;1218;3028143;-64
2021/09/27 10:01:33;;;;;;;0.70;0.50;;;;;;;15.79;45.82;99702.33;27297;1218;3026193;-68
2021/09/27 10:04:07;;;;;;;2.10;0.60;;;;;;;15.98;45.69;99700.35;27249;1218;3055320;-69
2021/09/27 10:06:42;;;;;;;0.90;0.80;;;;;;;15.87;44.95;99697.64;27193;1218;3051880;-67
2021/09/27 10:09:25;;;;;;;1.00;0.50;;;;;;;16.14;44.62;99698.04;27212;1217;3068657;-68
2021/09/27 10:12:34;;;;;;;4.20;0.50;;;;;;;16.11;44.20;99696.82;27271;1218;3049108;-66
2021/09/27 10:15:26;;;;;;;2.70;0.50;;;;;;;15.88;44.41;99702.88;27251;1218;3051101;-69
2021/09/27 10:18:16;;;;;;;4.70;0.60;;;;;;;15.85;44.30;99698.73;27281;1218;3028466;-69
2021/09/27 10:21:25;;;;;;;0.90;0.50;;;;;;;15.71;44.82;99698.54;27262;1218;3055963;-64
2021/09/27 10:24:19;;;;;;;0.90;0.50;;;;;;;15.26;45.55;99701.83;27854;1217;3049592;-68
2021/09/27 10:27:17;;;;;;;3.00;0.50;;;;;;;15.31;45.96;99697.22;28151;1217;3052558;-68
2021/09/27 10:29:46;;;;;;;0.60;0.30;;;;;;;15.19;45.62;99706.54;27579;1216;3050701;-67
2021/09/27 10:32:45;;;;;;;2.40;0.30;;;;;;;15.22;45.18;99712.86;28014;1217;3070096;-70
2021/09/27 10:35:45;;;;;;;2.70;0.50;;;;;;;15.21;44.51;99707.16;27270;1218;3048297;-66
2021/09/27 10:38:21;;;;;;;0.40;0.40;;;;;;;15.35;44.20;99708.91;27245;1218;3054312;-69
2021/09/27 10:40:51;;;;;;;2.30;0.50;;;;;;;15.57;44.06;99698.41;27286;1217;3054516;-65
2021/09/27 10:43:24;;;;;;;1.40;0.50;;;;;;;15.65;44.18;99703.42;27269;1217;3026135;-63
2021/09/27 10:45:56;;;;;;;0.50;0.20;;;;;;;15.39;44.99;99707.89;27251;1217;3026593;-68
2021/09/27 10:48:25;;;;;;;0.50;0.30;;;;;;;15.48;45.03;99706.12;27257;1217;3026860;-71
2021/09/27 10:51:14;;;;;;;0.80;0.40;;;;;;;15.54;45.24;99705.70;27251;1218;3050461;-67
2021/09/27 10:53:54;;;;;;;2.10;0.50;;;;;;;15.66;44.72;99702.27;27226;1212;3026293;-66
2021/09/27 10:56:36;;;;;;;2.60;0.50;;;;;;;15.68;44.05;99703.36;27275;1217;3052752;-66
2021/09/27 10:59:13;;;;;;;1.80;0.50;;;;;;;15.67;44.12;99705.50;27234;1217;3052811;-67
2021/09/27 11:01:52;;;;;;;2.00;0.50;;;;;;;15.71;44.36;99707.48;27251;1217;3028123;-66
2021/09/27 11:04:43;;;;;;;6.70;0.80;;;;;;;15.84;44.36;99707.25;27253;1218;3049319;-66
2021/09/27 11:07:35;;;;;;;4.60;0.40;;;;;;;15.93;44.56;99710.05;27259;1218;3053422;-69
2021/09/27 11:10:13;;;;;;;1.30;0.60;;;;;;;15.75;44.30;99705.13;27220;1217;3053412;-65
2021/09/27 11:13:02;;;;;;;0.50;0.30;;;;;;;15.58;44.53;99700.09;27255;1219;3056340;-69
2021/09/27 11:15:36;;;;;;;3.00;0.30;;;;;;;15.36;44.45;99702.82;27302;1217;3026389;-68
2021/09/27 11:18:12;;;;;;;0.70;0.50;;;;;;;15.30;44.74;99702.90;27299;1218;3050949;-65
2021/09/27 11:20:51;;;;;;;0.50;0.40;;;;;;;15.36;44.39;99705.96;27261;1218;3056454;-67
2021/09/27 11:23:22;;;;;;;0.90;0.40;;;;;;;15.46;44.05;99706.27;27252;1217;3048864;-67
2021/09/27 11:26:20;;;;;;;4.30;0.40;;;;;;;15.54;43.81;99703.51;27320;1218;3025854;-66
2021/09/27 11:28:50;;;;;;;2.40;0.40;;;;;;;15.89;43.54;99705.45;27242;1218;3052161;-68
2021/09/27 11:31:27;;;;;;;3.30;0.70;;;;;;;16.04;42.84;99701.63;27279;1218;3070378;-65
2021/09/27 11:34:30;;;;;;;6.30;0.60;;;;;;;16.12;42.59;99697.79;27240;1218;3027945;-69
2021/09/27 11:37:20;;;;;;;0.70;0.50;;;;;;;15.98;43.06;99703.88;27142;1220;3054874;-65
2021/09/27 11:40:08;;;;;;;1.60;0.50;;;;;;;15.92;43.66;99705.98;27214;1221;3052478;-64
2021/09/27 11:42:43;;;;;;;0.90;0.50;;;;;;;15.85;43.95;99708.05;27223;1219;3055703;-69
2021/09/27 11:45:23;;;;;;;2.30;0.40;;;;;;;15.83;43.83;99704.70;27207;1219;3048639;-70
2021/09/27 11:48:02;;;;;;;2.30;0.60;;;;;;;15.77;44.09;99704.12;27203;1220;3055427;-65
2021/09/27 11:50:51;;;;;;;1.40;0.60;;;;;;;15.67;45.18;99709.98;27210;1219;3050916;-67
2021/09/27 11:53:33;;;;;;;0.80;0.50;;;;;;;15.56;45.10;99707.65;27172;1221;3071232;-70
2021/09/27 11:56:11;;;;;;;0.40;0.40;;;;;;;15.59;44.37;99710.08;27230;1221;3051248;-68
2021/09/27 11:59:15;;;;;;;1.00;0.50;;;;;;;15.54;44.45;99709.52;27194;1221;3051796;-67
2021/09/27 12:02:13;;;;;;;3.60;0.50;;;;;;;15.56;44.81;99706.20;27241;1221;3054970;-68
2021/09/27 12:05:12;;;;;;;5.50;0.60;;;;;;;15.52;45.10;99708.08;27220;1220;3057293;-67
2021/09/27 12:08:05;;;;;;;1.00;0.60;;;;;;;15.62;45.28;99710.32;27196;1221;3052397;-68
2021/09/27 12:10:47;;;;;;;4.30;0.60;;;;;;;15.57;45.52;99713.39;27225;1220;3054871;-68
2021/09/27 12:13:22;;;;;;;0.80;0.50;;;;;;;15.51;45.21;99718.98;27239;1218;3053133;-66
2021/09/27 12:16:20;;;;;;;1.40;0.80;;;;;;;15.26;45.18;99715.75;27268;1216;3068589;-66
2021/09/27 12:18:54;;;;;;;1.10;0.50;;;;;;;15.36;45.11;99713.71;27248;1215;3048631;-66
2021/09/27 12:21:58;;;;;;;0.60;0.40;;;;;;;15.29;45.32;99718.89;27235;1218;3052028;-69
2021/09/27 12:24:31;;;;;;;1.00;0.50;;;;;;;15.12;46.33;99718.77;27274;1215;3052060;-69
2021/09/27 12:27:06;;;;;;;2.30;0.70;;;;;;;15.06;47.11;99719.71;27260;1215;3028434;-65